Capitol Logistics 2576


KMEM
Memphis International Airport
Memphis, Tennessee, US
KIAD
Washington Dulles International Airport
Dulles, Virginia, US

Activity Log

Date Flight Route Aircraft Duration
12/07/2019 CPX2576 GOETZ6 DIYAB BNA J42 BKW GIBBZ3 B763 1h 48m

Route Details

Aircraft Information
Primary: Boeing 767-300BDSF
Backup: Boeing 757-200SF
Date Restrictions
Between:Nov 16, 2019
Dec 31, 2019
Route Data
Distance: 644nm
Sched. Duration: 1h 33m
Avg. Duration: 1h 48m (+15m)
Times Flown: 1
Recm'd Route: GOETZ6 DIYAB BNA J42 BKW GIBBZ3
Planned Altitude: 37,000ft
Origin Wx: KMEM 282154Z 27014G18KT 10SM FEW030 SCT120 SCT250 12/M02 A3019 RMK AO2 SLP223 T01171022
Dest. Wx: KIAD 282152Z 30005KT 10SM FEW055 BKN070 OVC095 06/M04 A2983 RMK AO2 SLP104 T00611044
Notes: OPERATED FOR FEDEX

Financial History
Total Freight: 53,744lbs
Average Load: 53,744lbs/flt
Fuel Used: 17,105lbs
Avg. Fuel Used: 17,105lbs/flt
Fuel Expense: $17,960
Avg. Fuel Expense: $17,960
Avg. Fuel Cost: $1.05/lbs
Total Gross Income: $81,153
Pilot Pay: $229
Total Expenses: $8,817
Total Revenue: $54,038
Average Revenue: $81,153.44